createdAt,value
2023-04-12T00:00:09.092Z,1000.53
2023-04-12T00:00:41.541Z,1000.50
2023-04-12T00:01:13.988Z,1000.53
2023-04-12T00:01:46.519Z,1000.49
2023-04-12T00:02:19.843Z,1000.50
2023-04-12T00:02:52.184Z,1000.48
2023-04-12T00:03:24.651Z,1000.47
2023-04-12T00:03:57.303Z,1000.48
2023-04-12T00:04:29.710Z,1000.47
2023-04-12T00:05:02.067Z,1000.45
2023-04-12T00:05:34.509Z,1000.46
2023-04-12T00:06:06.999Z,1000.40
2023-04-12T00:06:39.462Z,1000.37
2023-04-12T00:07:11.938Z,1000.36
2023-04-12T00:07:44.402Z,1000.34
2023-04-12T00:08:16.886Z,1000.33
2023-04-12T00:08:49.311Z,1000.28
2023-04-12T00:09:21.774Z,1000.27
2023-04-12T00:09:54.249Z,1000.26
2023-04-12T00:10:26.723Z,1000.25
2023-04-12T00:10:59.239Z,1000.24
2023-04-12T00:11:31.733Z,1000.28
2023-04-12T00:12:04.226Z,1000.30
2023-04-12T00:12:36.694Z,1000.30
2023-04-12T00:13:09.167Z,1000.26
2023-04-12T00:13:41.644Z,1000.34
2023-04-12T00:14:14.122Z,1000.27
2023-04-12T00:14:46.585Z,1000.25
2023-04-12T00:15:19.037Z,1000.23
2023-04-12T00:15:51.519Z,1000.26
2023-04-12T00:16:24.050Z,1000.23
2023-04-12T00:16:56.441Z,1000.21
2023-04-12T00:17:28.968Z,1000.21
2023-04-12T00:18:01.438Z,1000.14
2023-04-12T00:18:33.858Z,1000.15
2023-04-12T00:19:06.340Z,1000.15
2023-04-12T00:19:38.868Z,1000.10
2023-04-12T00:20:11.322Z,1000.07
2023-04-12T00:20:43.777Z,1000.06
2023-04-12T00:21:16.259Z,1000.06
2023-04-12T00:21:48.738Z,1000.08
2023-04-12T00:22:21.228Z,1000.06
2023-04-12T00:22:53.700Z,1000.07
2023-04-12T00:23:26.159Z,1000.05
2023-04-12T00:23:59.067Z,1000.04
2023-04-12T00:24:31.146Z,1000.03
2023-04-12T00:25:03.612Z,1000.04
2023-04-12T00:25:36.142Z,1000.05
2023-04-12T00:26:08.604Z,1000.03
2023-04-12T00:26:41.065Z,1000.05
2023-04-12T00:27:13.536Z,1000.00
2023-04-12T00:27:46.041Z,1000.01
2023-04-12T00:28:18.513Z,1000.00
2023-04-12T00:28:50.967Z,1000.00
2023-04-12T00:29:23.433Z,1000.00
2023-04-12T00:29:55.908Z,999.99
2023-04-12T00:30:28.365Z,999.99
2023-04-12T00:31:00.855Z,1000.01
2023-04-12T00:31:33.348Z,1000.01
2023-04-12T00:32:05.883Z,1000.01
2023-04-12T00:32:38.341Z,999.99
2023-04-12T00:33:10.714Z,999.98
2023-04-12T00:33:43.193Z,999.98
2023-04-12T00:34:15.663Z,999.97
2023-04-12T00:34:48.137Z,999.96
2023-04-12T00:35:20.578Z,999.93
2023-04-12T00:35:53.084Z,999.94
2023-04-12T00:36:25.541Z,999.92
2023-04-12T00:36:58.024Z,999.92
2023-04-12T00:37:30.500Z,999.91
2023-04-12T00:38:02.996Z,999.91
2023-04-12T00:38:35.470Z,999.93
2023-04-12T00:39:07.961Z,999.91
2023-04-12T00:39:40.437Z,999.90
2023-04-12T00:40:12.907Z,999.86
2023-04-12T00:40:45.365Z,999.88
2023-04-12T00:41:17.843Z,999.86
2023-04-12T00:41:50.299Z,999.86
2023-04-12T00:42:22.822Z,999.86
2023-04-12T00:42:55.388Z,999.84
2023-04-12T00:43:27.887Z,999.81
2023-04-12T00:44:00.347Z,999.79
2023-04-12T00:44:32.811Z,999.74
2023-04-12T00:45:05.280Z,999.73
2023-04-12T00:45:37.751Z,999.70
2023-04-12T00:46:10.274Z,999.68
2023-04-12T00:46:42.792Z,999.70
2023-04-12T00:47:15.201Z,999.68
2023-04-12T00:47:47.721Z,999.67
2023-04-12T00:48:20.148Z,999.65
2023-04-12T00:48:52.684Z,999.66
2023-04-12T00:49:25.172Z,999.61
2023-04-12T00:49:57.640Z,999.61
2023-04-12T00:50:30.149Z,999.59
2023-04-12T00:51:02.594Z,999.59
2023-04-12T00:51:35.114Z,999.59
2023-04-12T00:52:07.583Z,999.58
2023-04-12T00:52:40.063Z,999.57
2023-04-12T00:53:12.571Z,999.57
2023-04-12T00:53:45.051Z,999.57
2023-04-12T00:54:17.518Z,999.63
2023-04-12T00:54:49.996Z,999.58
2023-04-12T00:55:22.459Z,999.60
2023-04-12T00:55:54.929Z,999.61
2023-04-12T00:56:27.424Z,999.61
2023-04-12T00:56:59.890Z,999.62
2023-04-12T00:57:32.388Z,999.61
2023-04-12T00:58:04.882Z,999.61
2023-04-12T00:58:37.357Z,999.59
2023-04-12T00:59:09.832Z,999.58
2023-04-12T00:59:42.326Z,999.57
2023-04-12T01:00:14.781Z,999.53
2023-04-12T01:00:47.271Z,999.53
2023-04-12T01:01:19.807Z,999.49
2023-04-12T01:01:52.310Z,999.51
2023-04-12T01:02:24.805Z,999.48
2023-04-12T01:02:57.275Z,999.48
2023-04-12T01:03:29.741Z,999.46
2023-04-12T01:04:02.120Z,999.45
2023-04-12T01:04:34.635Z,999.43
2023-04-12T01:05:07.042Z,999.39
2023-04-12T01:05:39.534Z,999.36
2023-04-12T01:06:12.026Z,999.37
2023-04-12T01:06:44.520Z,999.38
2023-04-12T01:07:16.958Z,999.34
2023-04-12T01:07:49.452Z,999.37
2023-04-12T01:08:21.908Z,999.35
2023-04-12T01:08:54.364Z,999.34
2023-04-12T01:09:26.821Z,999.33
2023-04-12T01:09:59.294Z,999.34
2023-04-12T01:10:31.814Z,999.34
2023-04-12T01:11:04.304Z,999.31
2023-04-12T01:11:36.760Z,999.33
2023-04-12T01:12:09.220Z,999.30
2023-04-12T01:12:41.705Z,999.28
2023-04-12T01:13:14.268Z,999.27
2023-04-12T01:13:46.731Z,999.25
2023-04-12T01:14:19.204Z,999.24
2023-04-12T01:14:51.678Z,999.20
2023-04-12T01:15:24.153Z,999.18
2023-04-12T01:15:56.667Z,999.21
2023-04-12T01:16:29.177Z,999.18
2023-04-12T01:17:01.598Z,999.17
2023-04-12T01:17:34.100Z,999.15
2023-04-12T01:18:06.637Z,999.15
2023-04-12T01:18:39.093Z,999.13
2023-04-12T01:19:11.559Z,999.14
2023-04-12T01:19:44.074Z,999.13
2023-04-12T01:20:16.571Z,999.12
2023-04-12T01:20:49.108Z,999.13
2023-04-12T01:21:21.573Z,999.12
2023-04-12T01:21:54.045Z,999.14
2023-04-12T01:22:26.519Z,999.09
2023-04-12T01:22:59.062Z,999.10
2023-04-12T01:23:31.534Z,999.07
2023-04-12T01:24:03.992Z,999.02
2023-04-12T01:24:36.514Z,998.98
2023-04-12T01:25:08.988Z,998.95
2023-04-12T01:25:41.473Z,998.94
2023-04-12T01:26:13.958Z,998.94
2023-04-12T01:26:46.410Z,998.95
2023-04-12T01:27:18.861Z,998.95
2023-04-12T01:27:51.330Z,998.93
2023-04-12T01:28:23.794Z,998.94
2023-04-12T01:28:56.307Z,998.95
2023-04-12T01:29:28.782Z,998.94
2023-04-12T01:30:01.271Z,998.91
2023-04-12T01:30:33.738Z,998.89
2023-04-12T01:31:06.244Z,998.91
2023-04-12T01:31:38.771Z,998.90
2023-04-12T01:32:11.176Z,998.90
2023-04-12T01:32:43.728Z,998.86
2023-04-12T01:33:16.132Z,998.86
2023-04-12T01:33:48.645Z,998.82
2023-04-12T01:34:21.100Z,998.83
2023-04-12T01:34:53.578Z,998.83
2023-04-12T01:35:26.062Z,998.81
2023-04-12T01:35:58.555Z,998.80
2023-04-12T01:36:30.974Z,998.78
2023-04-12T01:37:03.473Z,998.78
2023-04-12T01:37:35.942Z,998.77
2023-04-12T01:38:08.436Z,998.77
2023-04-12T01:38:40.930Z,998.77
2023-04-12T01:39:13.439Z,998.77
2023-04-12T01:39:45.897Z,998.77
2023-04-12T01:40:18.357Z,998.77
2023-04-12T01:40:50.824Z,998.81
2023-04-12T01:41:23.284Z,998.79
2023-04-12T01:41:55.795Z,998.77
2023-04-12T01:42:28.253Z,998.74
2023-04-12T01:43:00.781Z,998.72
2023-04-12T01:43:33.219Z,998.71
2023-04-12T01:44:05.708Z,998.69
2023-04-12T01:44:38.188Z,998.68
2023-04-12T01:45:10.681Z,998.68
2023-04-12T01:45:43.165Z,998.68
2023-04-12T01:46:15.658Z,998.65
2023-04-12T01:46:48.114Z,998.69
2023-04-12T01:47:20.624Z,998.64
2023-04-12T01:47:53.085Z,998.66
2023-04-12T01:48:25.508Z,998.67
2023-04-12T01:48:57.991Z,998.66
2023-04-12T01:49:30.473Z,998.67
2023-04-12T01:50:02.940Z,998.68
2023-04-12T01:50:35.434Z,998.68
2023-04-12T01:51:07.891Z,998.68
2023-04-12T01:51:40.388Z,998.68
2023-04-12T01:52:12.896Z,998.67
2023-04-12T01:52:45.389Z,998.67
2023-04-12T01:53:17.881Z,998.65
2023-04-12T01:53:50.389Z,998.66
2023-04-12T01:54:22.902Z,998.64
2023-04-12T01:54:55.398Z,998.67
2023-04-12T01:55:27.844Z,998.66
2023-04-12T01:56:00.358Z,998.67
2023-04-12T01:56:32.812Z,998.66
2023-04-12T01:57:05.285Z,998.66
2023-04-12T01:57:37.799Z,998.67
2023-04-12T01:58:10.288Z,998.65
2023-04-12T01:58:42.799Z,998.66
2023-04-12T01:59:15.276Z,998.62
2023-04-12T01:59:47.750Z,998.59
2023-04-12T02:00:20.211Z,998.59
2023-04-12T02:00:52.764Z,998.57
2023-04-12T02:01:25.242Z,998.54
2023-04-12T02:01:57.789Z,998.55
2023-04-12T02:02:30.854Z,998.53
2023-04-12T02:03:03.392Z,998.51
2023-04-12T02:03:35.787Z,998.52
2023-04-12T02:04:08.198Z,998.51
2023-04-12T02:04:40.638Z,998.46
2023-04-12T02:05:13.123Z,998.49
2023-04-12T02:05:45.601Z,998.48
2023-04-12T02:06:18.060Z,998.46
2023-04-12T02:06:50.560Z,998.47
2023-04-12T02:07:23.099Z,998.48
2023-04-12T02:07:55.613Z,998.50
2023-04-12T02:08:28.065Z,998.48
2023-04-12T02:09:00.540Z,998.46
2023-04-12T02:09:33.064Z,998.46
2023-04-12T02:10:05.543Z,998.45
2023-04-12T02:10:38.021Z,998.47
2023-04-12T02:11:10.532Z,998.45
2023-04-12T02:11:42.979Z,998.44
2023-04-12T02:12:15.459Z,998.42
2023-04-12T02:12:47.969Z,998.40
2023-04-12T02:13:20.425Z,998.40
2023-04-12T02:13:52.992Z,998.37
2023-04-12T02:14:25.472Z,998.41
2023-04-12T02:14:57.982Z,998.38
2023-04-12T02:15:30.427Z,998.39
2023-04-12T02:16:02.930Z,998.37
2023-04-12T02:16:35.448Z,998.34
2023-04-12T02:17:07.887Z,998.33
2023-04-12T02:17:40.376Z,998.31
2023-04-12T02:18:12.874Z,998.30
2023-04-12T02:18:45.360Z,998.31
2023-04-12T02:19:17.862Z,998.30
2023-04-12T02:19:50.408Z,998.27
2023-04-12T02:20:22.907Z,998.27
2023-04-12T02:20:55.381Z,998.25
2023-04-12T02:21:28.070Z,998.23
2023-04-12T02:22:00.351Z,998.21
2023-04-12T02:22:32.837Z,998.18
2023-04-12T02:23:05.301Z,998.17
2023-04-12T02:23:37.792Z,998.18
2023-04-12T02:24:10.304Z,998.15
2023-04-12T02:24:42.775Z,998.12
2023-04-12T02:25:15.259Z,998.11
2023-04-12T02:25:47.722Z,998.09
2023-04-12T02:26:20.195Z,998.05
2023-04-12T02:26:52.735Z,998.02
2023-04-12T02:27:25.205Z,997.98
2023-04-12T02:27:57.675Z,997.98
2023-04-12T02:28:30.134Z,997.95
2023-04-12T02:29:02.611Z,997.97
2023-04-12T02:29:35.092Z,997.95
2023-04-12T02:30:07.585Z,997.90
2023-04-12T02:30:40.160Z,997.91
2023-04-12T02:31:12.568Z,997.89
2023-04-12T02:31:45.099Z,997.87
2023-04-12T02:32:17.593Z,997.86
2023-04-12T02:32:50.114Z,997.80
2023-04-12T02:33:22.557Z,997.79
2023-04-12T02:33:55.146Z,997.77
2023-04-12T02:34:27.545Z,997.77
2023-04-12T02:35:00.051Z,997.79
2023-04-12T02:35:32.545Z,997.75
2023-04-12T02:36:05.016Z,997.74
2023-04-12T02:36:37.497Z,997.72
2023-04-12T02:37:10.010Z,997.71
2023-04-12T02:37:42.489Z,997.72
2023-04-12T02:38:14.979Z,997.69
2023-04-12T02:38:47.473Z,997.70
2023-04-12T02:39:19.956Z,997.68
2023-04-12T02:39:52.499Z,997.66
2023-04-12T02:40:25.015Z,997.66
2023-04-12T02:40:57.477Z,997.62
2023-04-12T02:41:30.049Z,997.60
2023-04-12T02:42:02.547Z,997.60
2023-04-12T02:42:35.625Z,997.58
2023-04-12T02:43:07.513Z,997.55
2023-04-12T02:43:40.019Z,997.56
2023-04-12T02:44:12.490Z,997.52
2023-04-12T02:44:44.983Z,997.48
2023-04-12T02:45:17.455Z,997.46
2023-04-12T02:45:50.021Z,997.45
2023-04-12T02:46:22.465Z,997.42
2023-04-12T02:46:54.917Z,997.42
2023-04-12T02:47:27.532Z,997.35
2023-04-12T02:48:00.023Z,997.31
2023-04-12T02:48:32.430Z,997.31
2023-04-12T02:49:04.891Z,997.33
2023-04-12T02:49:37.390Z,997.33
2023-04-12T02:50:09.874Z,997.30
2023-04-12T02:50:42.354Z,997.29
2023-04-12T02:51:14.840Z,997.32
2023-04-12T02:51:47.303Z,997.32
2023-04-12T02:52:19.764Z,997.30
2023-04-12T02:52:52.264Z,997.31
2023-04-12T02:53:24.713Z,997.26
2023-04-12T02:53:57.369Z,997.24
2023-04-12T02:54:29.710Z,997.28
2023-04-12T02:55:02.198Z,997.27
2023-04-12T02:55:34.652Z,997.26
2023-04-12T02:56:07.111Z,997.24
2023-04-12T02:56:39.677Z,997.23
2023-04-12T02:57:12.169Z,997.22
2023-04-12T02:57:44.635Z,997.20
2023-04-12T02:58:17.151Z,997.19
2023-04-12T02:58:49.629Z,997.17
2023-04-12T02:59:22.122Z,997.19
2023-04-12T02:59:54.593Z,997.18
2023-04-12T03:00:27.093Z,997.21
2023-04-12T03:00:59.632Z,997.16
2023-04-12T03:01:32.187Z,997.12
2023-04-12T03:02:04.739Z,997.10
2023-04-12T03:02:37.172Z,997.09
2023-04-12T03:03:09.662Z,997.09
2023-04-12T03:03:42.135Z,997.10
2023-04-12T03:04:14.547Z,997.12
2023-04-12T03:04:47.022Z,997.08
2023-04-12T03:05:19.464Z,997.09
2023-04-12T03:05:51.974Z,997.11
2023-04-12T03:06:24.470Z,997.09
2023-04-12T03:06:56.933Z,997.09
2023-04-12T03:07:29.417Z,997.09
2023-04-12T03:08:01.904Z,997.08
2023-04-12T03:08:34.377Z,997.07
2023-04-12T03:09:06.896Z,997.05
2023-04-12T03:09:39.370Z,997.05
2023-04-12T03:10:11.851Z,997.03
2023-04-12T03:10:44.350Z,997.02
2023-04-12T03:11:16.858Z,997.04
2023-04-12T03:11:49.335Z,997.04
2023-04-12T03:12:28.879Z,997.04
2023-04-12T03:13:01.456Z,997.00
2023-04-12T03:13:33.920Z,997.00
2023-04-12T03:14:06.415Z,996.98
2023-04-12T03:14:38.935Z,996.96
2023-04-12T03:15:11.395Z,996.95
2023-04-12T03:15:43.950Z,996.92
2023-04-12T03:16:16.490Z,996.91
2023-04-12T03:16:48.926Z,996.88
2023-04-12T03:17:21.481Z,996.90
2023-04-12T03:17:53.991Z,996.86
2023-04-12T03:18:26.389Z,996.84
2023-04-12T03:18:58.887Z,996.81
2023-04-12T03:19:31.345Z,996.75
2023-04-12T03:20:03.834Z,996.72
2023-04-12T03:20:36.325Z,996.74
2023-04-12T03:21:08.819Z,996.70
2023-04-12T03:21:41.316Z,996.66
2023-04-12T03:22:13.796Z,996.68
2023-04-12T03:22:46.290Z,996.60
2023-04-12T03:23:18.740Z,996.58
2023-04-12T03:23:51.257Z,996.56
2023-04-12T03:24:23.718Z,996.58
2023-04-12T03:24:56.196Z,996.57
2023-04-12T03:25:28.689Z,996.57
2023-04-12T03:26:01.154Z,996.56
2023-04-12T03:26:33.618Z,996.48
2023-04-12T03:27:06.102Z,996.47
2023-04-12T03:27:38.602Z,996.46
2023-04-12T03:28:11.105Z,996.45
2023-04-12T03:28:43.607Z,996.47
2023-04-12T03:29:16.130Z,996.48
2023-04-12T03:29:48.616Z,996.44
2023-04-12T03:30:21.194Z,996.43
2023-04-12T03:30:53.610Z,996.45
2023-04-12T03:31:26.058Z,996.44
2023-04-12T03:31:58.537Z,996.46
2023-04-12T03:32:31.085Z,996.46
2023-04-12T03:33:03.573Z,996.41
2023-04-12T03:33:36.064Z,996.42
2023-04-12T03:34:08.549Z,996.42
2023-04-12T03:34:41.023Z,996.40
2023-04-12T03:35:13.507Z,996.34
2023-04-12T03:35:46.049Z,996.37
2023-04-12T03:36:18.490Z,996.36
2023-04-12T03:36:51.018Z,996.33
2023-04-12T03:37:23.511Z,996.33
2023-04-12T03:37:55.972Z,996.32
2023-04-12T03:38:28.451Z,996.28
2023-04-12T03:39:00.936Z,996.29
2023-04-12T03:39:33.392Z,996.29
2023-04-12T03:40:05.924Z,996.24
2023-04-12T03:40:38.371Z,996.26
2023-04-12T03:41:10.832Z,996.24
2023-04-12T03:41:43.332Z,996.31
2023-04-12T03:42:29.350Z,996.18
2023-04-12T03:42:48.298Z,996.16
2023-04-12T03:43:20.783Z,996.14
2023-04-12T03:43:53.290Z,996.15
2023-04-12T03:44:25.733Z,996.11
2023-04-12T03:44:58.299Z,996.07
2023-04-12T03:45:30.757Z,996.11
2023-04-12T03:46:03.267Z,996.11
2023-04-12T03:46:35.740Z,996.05
2023-04-12T03:47:08.160Z,996.01
2023-04-12T03:47:40.749Z,996.05
2023-04-12T03:48:13.139Z,996.03
2023-04-12T03:48:45.601Z,996.07
2023-04-12T03:49:18.055Z,996.04
2023-04-12T03:50:06.015Z,996.06
2023-04-12T03:50:23.039Z,995.99
2023-04-12T03:50:55.518Z,995.99
2023-04-12T03:51:27.976Z,995.94
2023-04-12T03:52:00.422Z,995.95
2023-04-12T03:52:32.909Z,995.90
2023-04-12T03:53:05.400Z,995.98
2023-04-12T03:53:37.853Z,995.85
2023-04-12T03:54:10.327Z,995.91
2023-04-12T03:54:42.830Z,995.77
2023-04-12T03:55:15.334Z,995.76
2023-04-12T03:55:47.795Z,995.75
2023-04-12T03:56:20.295Z,995.73
2023-04-12T03:56:52.754Z,995.74
2023-04-12T03:57:25.225Z,995.74
2023-04-12T03:57:57.719Z,995.84
2023-04-12T03:58:30.198Z,995.65
2023-04-12T03:59:02.678Z,995.65
2023-04-12T03:59:35.158Z,995.59
2023-04-12T04:00:07.627Z,995.57
2023-04-12T04:00:40.127Z,995.53
2023-04-12T04:01:12.613Z,995.61
2023-04-12T04:01:45.141Z,995.56
2023-04-12T04:02:17.673Z,995.57
2023-04-12T04:02:50.166Z,995.51
2023-04-12T04:03:22.589Z,995.57
2023-04-12T04:03:55.186Z,995.61
2023-04-12T04:04:27.608Z,995.46
2023-04-12T04:04:59.991Z,995.53
2023-04-12T04:05:32.433Z,995.44
2023-04-12T04:06:04.902Z,995.45
2023-04-12T04:06:37.369Z,995.36
2023-04-12T04:07:09.826Z,995.41
2023-04-12T04:07:42.303Z,995.33
2023-04-12T04:08:14.831Z,995.30
2023-04-12T04:08:47.308Z,995.34
2023-04-12T04:09:19.756Z,995.28
2023-04-12T04:09:52.235Z,995.34
2023-04-12T04:10:24.752Z,995.24
2023-04-12T04:10:57.239Z,995.27
2023-04-12T04:11:29.701Z,995.23
2023-04-12T04:12:02.170Z,995.21
2023-04-12T04:12:34.688Z,995.25
2023-04-12T04:13:07.145Z,995.16
2023-04-12T04:13:39.608Z,995.21
2023-04-12T04:14:12.080Z,995.21
2023-04-12T04:14:44.571Z,995.18
2023-04-12T04:15:17.032Z,995.22
2023-04-12T04:15:49.491Z,995.18
2023-04-12T04:16:21.977Z,995.17
2023-04-12T04:16:54.422Z,995.23
2023-04-12T04:17:26.937Z,995.22
2023-04-12T04:17:59.411Z,995.23
2023-04-12T04:18:38.959Z,995.18
2023-04-12T04:19:13.280Z,995.22
2023-04-12T04:19:45.734Z,995.23
2023-04-12T04:20:18.210Z,995.19
2023-04-12T04:20:50.678Z,995.16
2023-04-12T04:21:23.125Z,995.20
2023-04-12T04:21:55.625Z,995.17
2023-04-12T04:22:28.117Z,995.14
2023-04-12T04:23:00.590Z,995.12
2023-04-12T04:23:33.041Z,995.15
2023-04-12T04:24:05.504Z,995.12
2023-04-12T04:24:37.950Z,995.10
2023-04-12T04:25:10.411Z,995.06
2023-04-12T04:25:42.894Z,995.01
2023-04-12T04:26:15.353Z,995.06
2023-04-12T04:26:47.805Z,995.06
2023-04-12T04:27:20.265Z,995.03
2023-04-12T04:27:52.714Z,995.04
2023-04-12T04:28:25.181Z,995.03
2023-04-12T04:28:57.650Z,995.00
2023-04-12T04:29:30.185Z,995.01
2023-04-12T04:30:02.685Z,995.03
2023-04-12T04:30:35.123Z,995.05
2023-04-12T04:31:07.579Z,995.00
2023-04-12T04:31:40.081Z,995.01
2023-04-12T04:32:12.613Z,995.09
2023-04-12T04:32:44.989Z,995.02
2023-04-12T04:35:01.519Z,994.98
2023-04-12T04:35:34.027Z,994.98
2023-04-12T04:36:06.425Z,994.99
2023-04-12T04:36:38.831Z,994.95
2023-04-12T04:37:11.297Z,995.02
2023-04-12T04:37:43.775Z,994.96
2023-04-12T04:38:16.278Z,994.92
2023-04-12T04:38:48.749Z,994.91
2023-04-12T04:39:21.240Z,994.88
2023-04-12T04:39:53.711Z,994.86
2023-04-12T04:40:26.187Z,994.84
2023-04-12T04:40:58.679Z,994.87
2023-04-12T04:41:31.128Z,994.85
2023-04-12T04:42:03.648Z,994.91
2023-04-12T04:42:36.123Z,994.84
2023-04-12T04:43:08.622Z,994.80
2023-04-12T04:43:41.104Z,994.83
2023-04-12T04:44:13.582Z,994.82
2023-04-12T04:44:46.014Z,994.79
2023-04-12T04:45:18.514Z,994.79
2023-04-12T04:45:51.018Z,994.80
2023-04-12T04:46:23.477Z,994.81
2023-04-12T04:46:55.946Z,994.76
2023-04-12T04:47:28.516Z,994.74
2023-04-12T04:48:00.913Z,994.71
2023-04-12T04:48:33.373Z,994.76
2023-04-12T04:49:05.844Z,994.74
2023-04-12T04:49:38.299Z,994.77
2023-04-12T04:50:10.897Z,994.76
2023-04-12T04:50:43.378Z,994.76
2023-04-12T04:51:15.925Z,994.75
2023-04-12T04:51:48.294Z,994.77
2023-04-12T04:52:20.749Z,994.80
2023-04-12T04:52:53.274Z,994.72
2023-04-12T04:53:25.717Z,994.79
2023-04-12T04:53:58.363Z,994.72
2023-04-12T04:54:30.682Z,994.70
2023-04-12T04:55:04.775Z,994.69
2023-04-12T04:55:35.608Z,994.68
2023-04-12T04:56:08.081Z,994.68
2023-04-12T04:56:40.603Z,994.65
2023-04-12T04:57:13.083Z,994.64
2023-04-12T04:57:45.599Z,994.64
2023-04-12T04:58:18.055Z,994.64
2023-04-12T04:58:50.489Z,994.67
2023-04-12T04:59:22.975Z,994.66
2023-04-12T04:59:55.446Z,994.62
2023-04-12T05:00:27.909Z,994.60
2023-04-12T05:01:00.473Z,994.61
2023-04-12T05:01:32.877Z,994.57
2023-04-12T05:02:05.414Z,994.57
2023-04-12T05:02:37.975Z,994.54
2023-04-12T05:03:10.419Z,994.58
2023-04-12T05:03:42.942Z,994.53
2023-04-12T05:04:15.342Z,994.49
2023-04-12T05:04:47.831Z,994.46
2023-04-12T05:05:20.312Z,994.47
2023-04-12T05:05:52.791Z,994.44
2023-04-12T05:06:25.290Z,994.47
2023-04-12T05:06:57.857Z,994.43
2023-04-12T05:07:30.278Z,994.44
2023-04-12T05:08:02.850Z,994.48
2023-04-12T05:08:35.298Z,994.51
2023-04-12T05:09:07.757Z,994.37
2023-04-12T05:09:40.236Z,994.37
2023-04-12T05:10:12.734Z,994.39
2023-04-12T05:10:45.208Z,994.39
2023-04-12T05:11:17.665Z,994.40
2023-04-12T05:11:50.158Z,994.34
2023-04-12T05:12:22.696Z,994.34
2023-04-12T05:12:55.164Z,994.37
2023-04-12T05:13:27.655Z,994.33
2023-04-12T05:14:00.171Z,994.37
2023-04-12T05:14:44.536Z,994.35
2023-04-12T05:15:11.612Z,994.32
2023-04-12T05:15:37.605Z,994.42
2023-04-12T05:16:10.192Z,994.32
2023-04-12T05:16:42.569Z,994.34
2023-04-12T05:17:15.010Z,994.27
2023-04-12T05:17:47.602Z,994.27
2023-04-12T05:18:20.019Z,994.32
2023-04-12T05:18:52.520Z,994.27
2023-04-12T05:19:25.002Z,994.22
2023-04-12T05:19:57.503Z,994.23
2023-04-12T05:20:29.978Z,994.20
2023-04-12T05:21:02.489Z,994.23
2023-04-12T05:21:34.961Z,994.18
2023-04-12T05:22:07.451Z,994.16
2023-04-12T05:22:39.883Z,994.13
2023-04-12T05:23:12.360Z,994.14
2023-04-12T05:23:44.843Z,994.16
2023-04-12T05:24:17.307Z,994.12
2023-04-12T05:24:49.796Z,994.16
2023-04-12T05:25:22.287Z,994.09
2023-04-12T05:25:54.758Z,994.11
2023-04-12T05:26:27.255Z,994.19
2023-04-12T05:26:59.738Z,994.11
2023-04-12T05:27:33.049Z,994.12
2023-04-12T05:28:05.545Z,994.08
2023-04-12T05:28:38.016Z,994.08
2023-04-12T05:29:10.478Z,994.04
2023-04-12T05:29:42.935Z,994.08
2023-04-12T05:30:15.400Z,994.05
2023-04-12T05:30:47.951Z,994.04
2023-04-12T05:31:20.666Z,994.04
2023-04-12T05:31:52.867Z,994.04
2023-04-12T05:32:25.391Z,994.07
2023-04-12T05:32:57.839Z,994.05
2023-04-12T05:33:31.149Z,994.04
2023-04-12T05:34:02.729Z,994.02
2023-04-12T05:34:35.240Z,994.03
2023-04-12T05:35:07.691Z,994.04
2023-04-12T05:35:40.214Z,994.03
2023-04-12T05:36:12.668Z,994.01
2023-04-12T05:36:45.156Z,994.00
2023-04-12T05:37:17.642Z,994.03
2023-04-12T05:37:50.131Z,994.00
2023-04-12T05:38:22.603Z,994.06
2023-04-12T05:38:55.280Z,994.04
2023-04-12T05:39:27.649Z,994.05
2023-04-12T05:40:00.171Z,994.05
2023-04-12T05:40:32.564Z,994.05
2023-04-12T05:41:05.057Z,994.03
2023-04-12T05:41:37.580Z,993.96
2023-04-12T05:42:10.115Z,994.01
2023-04-12T05:42:42.597Z,993.95
2023-04-12T05:43:15.100Z,993.99
2023-04-12T05:43:47.567Z,993.96
2023-04-12T05:44:20.019Z,993.97
2023-04-12T05:44:52.479Z,993.93
2023-04-12T05:45:24.975Z,993.95
2023-04-12T05:45:57.499Z,993.95
2023-04-12T05:46:29.956Z,993.95
2023-04-12T05:47:02.365Z,993.99
2023-04-12T05:47:34.907Z,993.94
2023-04-12T05:48:07.419Z,993.91
2023-04-12T05:48:39.855Z,993.95
2023-04-12T05:49:12.324Z,994.02
2023-04-12T05:49:44.816Z,993.97
2023-04-12T05:50:17.253Z,993.97
2023-04-12T05:50:49.706Z,993.93
2023-04-12T05:51:33.926Z,993.89
2023-04-12T05:51:54.607Z,993.88
2023-04-12T05:52:27.082Z,993.94
2023-04-12T05:52:59.546Z,993.89
2023-04-12T05:53:32.018Z,993.86
2023-04-12T05:54:04.508Z,993.87
2023-04-12T05:54:36.950Z,993.90
2023-04-12T05:55:09.442Z,993.93
2023-04-12T05:55:41.925Z,993.87
2023-04-12T05:56:14.394Z,993.91
2023-04-12T05:56:46.878Z,993.90
2023-04-12T05:57:19.365Z,993.82
2023-04-12T05:57:51.880Z,993.82
2023-04-12T05:58:24.364Z,993.81
2023-04-12T05:58:57.001Z,993.79
2023-04-12T05:59:29.272Z,993.80
2023-04-12T06:00:01.722Z,993.79
2023-04-12T06:00:34.206Z,993.78
2023-04-12T06:01:06.718Z,993.79
2023-04-12T06:01:39.224Z,993.80
2023-04-12T06:02:11.792Z,993.74
2023-04-12T06:02:44.261Z,993.80
2023-04-12T06:03:16.728Z,993.74
2023-04-12T06:03:49.196Z,993.76
2023-04-12T06:04:21.728Z,993.78
2023-04-12T06:04:54.098Z,993.76
2023-04-12T06:05:26.475Z,993.76
2023-04-12T06:05:58.917Z,993.73
2023-04-12T06:06:31.412Z,993.78
2023-04-12T06:07:03.842Z,993.69
2023-04-12T06:07:36.328Z,993.75
2023-04-12T06:08:08.808Z,993.72
2023-04-12T06:08:41.286Z,993.68
2023-04-12T06:09:13.772Z,993.74
2023-04-12T06:09:46.263Z,993.70
2023-04-12T06:10:18.741Z,993.72
2023-04-12T06:10:51.233Z,993.71
2023-04-12T06:11:23.739Z,993.63
2023-04-12T06:11:56.214Z,993.61
2023-04-12T06:12:28.671Z,993.64
2023-04-12T06:13:01.189Z,993.61
2023-04-12T06:13:33.672Z,993.62
2023-04-12T06:14:06.164Z,993.65
2023-04-12T06:14:38.617Z,993.54
2023-04-12T06:15:11.098Z,993.58
2023-04-12T06:15:43.617Z,993.54
2023-04-12T06:16:16.073Z,993.51
2023-04-12T06:16:48.556Z,993.50
2023-04-12T06:17:22.676Z,993.49
2023-04-12T06:17:55.022Z,993.55
2023-04-12T06:18:27.469Z,993.54
2023-04-12T06:19:00.200Z,993.52
2023-04-12T06:19:32.436Z,993.50
2023-04-12T06:20:04.887Z,993.53
2023-04-12T06:20:38.016Z,993.50
2023-04-12T06:21:10.525Z,993.50
2023-04-12T06:21:44.517Z,993.47
2023-04-12T06:22:17.770Z,993.46
2023-04-12T06:22:50.276Z,993.48
2023-04-12T06:23:23.283Z,993.45
2023-04-12T06:23:56.523Z,993.41
2023-04-12T06:24:28.979Z,993.50
2023-04-12T06:25:01.484Z,993.38
2023-04-12T06:25:33.978Z,993.40
2023-04-12T06:26:07.239Z,993.41
2023-04-12T06:26:40.481Z,993.36
2023-04-12T06:27:12.800Z,993.44
2023-04-12T06:27:46.276Z,993.37
2023-04-12T06:28:18.764Z,993.29
2023-04-12T06:28:52.504Z,993.34
2023-04-12T06:29:25.036Z,993.35
2023-04-12T06:29:57.620Z,993.35
2023-04-12T06:30:30.131Z,993.31
2023-04-12T06:31:03.511Z,993.28
2023-04-12T06:31:36.032Z,993.28
2023-04-12T06:32:09.023Z,993.21
2023-04-12T06:32:41.489Z,993.30
2023-04-12T06:33:13.975Z,993.24
2023-04-12T06:33:47.338Z,993.20
2023-04-12T06:34:20.513Z,993.20
2023-04-12T06:34:53.015Z,993.19
2023-04-12T06:35:25.488Z,993.15
2023-04-12T06:35:57.987Z,993.18
2023-04-12T06:36:31.000Z,993.21
2023-04-12T06:37:03.463Z,993.10
2023-04-12T06:37:36.812Z,993.16
2023-04-12T06:38:10.285Z,993.11
2023-04-12T06:38:42.784Z,993.13
2023-04-12T06:39:15.249Z,993.07
2023-04-12T06:39:47.747Z,993.09
2023-04-12T06:40:20.236Z,993.06
2023-04-12T06:40:52.712Z,993.01
2023-04-12T06:41:25.788Z,993.05
2023-04-12T06:41:58.285Z,993.00
2023-04-12T06:42:30.802Z,993.00
2023-04-12T06:43:03.291Z,993.03
2023-04-12T06:43:35.769Z,993.05
2023-04-12T06:44:08.422Z,993.04
2023-04-12T06:44:40.901Z,993.03
2023-04-12T06:45:13.383Z,993.00
2023-04-12T06:45:46.804Z,992.99
2023-04-12T06:46:19.291Z,993.02